createdAt,value
2022-08-28T00:00:57.699Z,13.90
2022-08-28T00:03:26.866Z,13.50
2022-08-28T00:05:56.035Z,14.55
2022-08-28T00:08:25.202Z,18.05
2022-08-28T00:10:54.755Z,15.55
2022-08-28T00:13:26.545Z,16.77
2022-08-28T00:16:02.373Z,11.45
2022-08-28T00:18:33.240Z,12.02
2022-08-28T00:21:03.187Z,11.25
2022-08-28T00:23:42.513Z,18.02
2022-08-28T00:26:33.403Z,11.57
2022-08-28T00:29:02.805Z,22.02
2022-08-28T00:31:32.169Z,15.18
2022-08-28T00:34:04.354Z,16.52
2022-08-28T00:36:33.831Z,15.73
2022-08-28T00:39:03.425Z,15.52
2022-08-28T00:41:33.852Z,12.85
2022-08-28T00:44:16.567Z,12.40
2022-08-28T00:46:48.890Z,12.57
2022-08-28T00:49:21.310Z,12.18
2022-08-28T00:52:06.978Z,20.20
2022-08-28T00:54:41.666Z,14.27
2022-08-28T00:57:30.698Z,14.68
2022-08-28T01:00:00.204Z,14.63
2022-08-28T01:02:29.717Z,11.05
2022-08-28T01:04:59.176Z,13.43
2022-08-28T01:07:28.570Z,11.23
2022-08-28T01:09:59.493Z,12.43
2022-08-28T01:12:31.760Z,11.77
2022-08-28T01:15:03.628Z,12.18
2022-08-28T01:17:35.982Z,12.27
2022-08-28T01:20:13.788Z,11.93
2022-08-28T01:22:49.170Z,12.00
2022-08-28T01:25:23.174Z,15.45
2022-08-28T01:27:52.797Z,19.77
2022-08-28T01:30:25.002Z,12.73
2022-08-28T01:32:56.928Z,14.35
2022-08-28T01:35:34.994Z,12.25
2022-08-28T01:38:04.807Z,16.23
2022-08-28T01:40:41.149Z,9.20
2022-08-28T01:43:19.042Z,12.07
2022-08-28T01:45:55.432Z,16.23
2022-08-28T01:48:27.920Z,25.08
2022-08-28T01:50:57.181Z,16.52
2022-08-28T01:53:32.598Z,12.73
2022-08-28T01:56:05.868Z,14.15
2022-08-28T01:58:38.343Z,12.45
2022-08-28T02:01:15.442Z,7.57
2022-08-28T02:03:44.614Z,5.85
2022-08-28T02:06:14.937Z,8.18
2022-08-28T02:08:44.468Z,7.65
2022-08-28T02:11:13.956Z,9.60
2022-08-28T02:13:43.293Z,5.75
2022-08-28T02:16:13.423Z,8.85
2022-08-28T02:18:42.905Z,12.32
2022-08-28T02:21:13.615Z,13.25
2022-08-28T02:23:45.692Z,20.08
2022-08-28T02:26:16.540Z,18.20
2022-08-28T02:28:45.780Z,11.50
2022-08-28T02:31:14.902Z,12.90
2022-08-28T02:33:46.029Z,18.83
2022-08-28T02:36:16.802Z,15.25
2022-08-28T02:38:47.559Z,16.27
2022-08-28T02:41:16.810Z,25.70
2022-08-28T02:43:45.937Z,21.95
2022-08-28T02:46:15.412Z,18.33
2022-08-28T02:48:44.538Z,10.73
2022-08-28T02:51:15.265Z,9.50
2022-08-28T02:53:44.813Z,7.78
2022-08-28T02:56:14.627Z,4.65
2022-08-28T02:58:44.068Z,7.30
2022-08-28T03:01:15.053Z,16.67
2022-08-28T03:03:44.938Z,6.03
2022-08-28T03:06:15.316Z,27.23
2022-08-28T03:08:45.350Z,6.90
2022-08-28T03:11:14.674Z,9.60
2022-08-28T03:13:43.804Z,5.40
2022-08-28T03:16:13.048Z,18.15
2022-08-28T03:18:42.584Z,4.40
2022-08-28T03:21:12.123Z,12.27
2022-08-28T03:23:41.721Z,6.50
2022-08-28T03:26:15.134Z,5.32
2022-08-28T03:28:47.439Z,9.40
2022-08-28T03:31:20.363Z,10.25
2022-08-28T03:33:50.241Z,7.65
2022-08-28T03:36:23.721Z,4.57
2022-08-28T03:38:54.512Z,12.32
2022-08-28T03:41:27.726Z,7.22
2022-08-28T03:44:01.055Z,4.50
2022-08-28T03:46:35.735Z,16.63
2022-08-28T03:49:06.519Z,7.78
2022-08-28T03:51:36.607Z,7.75
2022-08-28T03:54:06.486Z,10.70
2022-08-28T03:56:35.651Z,5.07
2022-08-28T03:59:06.524Z,4.32
2022-08-28T04:01:36.164Z,5.63
2022-08-28T04:04:05.755Z,9.15
2022-08-28T04:06:36.117Z,6.43
2022-08-28T04:09:06.083Z,7.20
2022-08-28T04:11:45.490Z,4.82
2022-08-28T04:14:14.600Z,15.68
2022-08-28T04:16:44.077Z,6.95
2022-08-28T04:19:13.506Z,6.60
2022-08-28T04:21:42.906Z,9.05
2022-08-28T04:24:14.874Z,6.57
2022-08-28T04:26:45.067Z,6.57
2022-08-28T04:29:14.586Z,8.40
2022-08-28T04:31:44.161Z,10.43
2022-08-28T04:34:13.545Z,7.13
2022-08-28T04:36:42.895Z,6.90
2022-08-28T04:39:12.758Z,8.43
2022-08-28T04:41:42.263Z,7.43
2022-08-28T04:44:11.865Z,12.45
2022-08-28T04:46:41.224Z,16.40
2022-08-28T04:49:10.725Z,7.65
2022-08-28T04:51:42.275Z,17.55
2022-08-28T04:54:12.282Z,6.40
2022-08-28T04:56:42.788Z,8.38
2022-08-28T04:59:12.830Z,5.68
2022-08-28T05:01:43.921Z,12.30
2022-08-28T05:04:14.253Z,9.35
2022-08-28T05:06:47.382Z,7.38
2022-08-28T05:09:19.829Z,9.75
2022-08-28T05:11:50.590Z,9.75
2022-08-28T05:14:21.199Z,4.35
2022-08-28T05:16:54.015Z,20.55
2022-08-28T05:19:24.038Z,7.88
2022-08-28T05:21:54.261Z,7.93
2022-08-28T05:24:23.657Z,7.03
2022-08-28T05:26:53.009Z,11.73
2022-08-28T05:29:23.522Z,5.43
2022-08-28T05:31:55.727Z,6.00
2022-08-28T05:34:25.372Z,9.65
2022-08-28T05:36:54.950Z,6.55
2022-08-28T05:39:24.302Z,11.45
2022-08-28T05:41:54.141Z,15.25
2022-08-28T05:44:23.593Z,6.10
2022-08-28T05:46:53.037Z,8.27
2022-08-28T05:49:22.421Z,12.25
2022-08-28T05:51:53.636Z,12.68
2022-08-28T05:54:23.508Z,13.63
2022-08-28T05:56:52.934Z,6.75
2022-08-28T05:59:23.113Z,8.00
2022-08-28T06:01:52.681Z,14.68
2022-08-28T06:04:27.322Z,5.97
2022-08-28T06:06:57.561Z,10.05
2022-08-28T06:09:30.197Z,8.80
2022-08-28T06:12:02.198Z,12.52
2022-08-28T06:14:32.426Z,8.55
2022-08-28T06:17:02.810Z,5.88
2022-08-28T06:19:35.595Z,5.07
2022-08-28T06:22:07.888Z,7.72
2022-08-28T06:24:37.391Z,17.60
2022-08-28T06:27:06.931Z,10.27
2022-08-28T06:29:36.039Z,8.77
2022-08-28T06:32:08.708Z,9.68
2022-08-28T06:34:38.169Z,7.10
2022-08-28T06:37:07.331Z,6.55
2022-08-28T06:39:36.655Z,6.35
2022-08-28T06:42:06.619Z,9.32
2022-08-28T06:44:35.815Z,6.93
2022-08-28T06:47:04.921Z,6.40
2022-08-28T06:49:35.375Z,6.03
2022-08-28T06:52:04.632Z,11.40
2022-08-28T06:54:33.889Z,3.75
2022-08-28T06:57:03.055Z,8.05
2022-08-28T06:59:32.143Z,3.05
2022-08-28T07:02:01.345Z,9.23
2022-08-28T07:04:30.585Z,3.95
2022-08-28T07:06:59.761Z,5.95
2022-08-28T07:09:28.851Z,5.45
2022-08-28T07:11:58.179Z,4.82
2022-08-28T07:14:27.390Z,2.90
2022-08-28T07:16:58.686Z,7.80
2022-08-28T07:19:28.428Z,3.00
2022-08-28T07:21:57.707Z,5.20
2022-08-28T07:24:28.461Z,5.97
2022-08-28T07:27:00.325Z,3.47
2022-08-28T07:29:29.681Z,6.32
2022-08-28T07:32:00.099Z,6.97
2022-08-28T07:34:29.403Z,7.97
2022-08-28T07:37:04.882Z,3.13
2022-08-28T07:39:34.437Z,3.30
2022-08-28T07:42:04.109Z,3.35
2022-08-28T07:44:51.660Z,6.20
2022-08-28T07:47:21.448Z,5.32
2022-08-28T07:49:51.191Z,4.93
2022-08-28T07:52:20.507Z,3.63
2022-08-28T07:54:50.581Z,2.42
2022-08-28T07:57:22.790Z,3.47
2022-08-28T07:59:53.501Z,4.97
2022-08-28T08:02:23.261Z,5.97
2022-08-28T08:04:52.823Z,2.40
2022-08-28T08:07:23.227Z,4.15
2022-08-28T08:09:52.558Z,3.28
2022-08-28T08:12:21.951Z,2.92
2022-08-28T08:14:51.375Z,3.65
2022-08-28T08:17:21.278Z,2.30
2022-08-28T08:19:50.679Z,5.25
2022-08-28T08:22:20.091Z,2.30
2022-08-28T08:24:49.637Z,3.97
2022-08-28T08:27:19.332Z,4.47
2022-08-28T08:29:50.098Z,7.30
2022-08-28T08:32:19.776Z,3.35
2022-08-28T08:34:50.659Z,1.95
2022-08-28T08:37:19.997Z,2.75
2022-08-28T08:39:49.347Z,2.00
2022-08-28T08:42:33.691Z,3.50
2022-08-28T08:45:05.369Z,1.63
2022-08-28T08:47:37.896Z,2.55
2022-08-28T08:50:18.035Z,2.10
2022-08-28T08:53:10.721Z,2.72
2022-08-28T08:55:52.317Z,2.97
2022-08-28T08:58:30.766Z,2.65
2022-08-28T09:01:27.572Z,3.40
2022-08-28T09:04:02.637Z,3.40
2022-08-28T09:06:42.855Z,12.13
2022-08-28T09:09:22.687Z,6.20
2022-08-28T09:12:02.852Z,2.67
2022-08-28T09:14:47.350Z,5.03
2022-08-28T09:17:20.368Z,6.95
2022-08-28T09:19:50.521Z,4.30
2022-08-28T09:22:19.658Z,9.02
2022-08-28T09:24:49.337Z,3.20
2022-08-28T09:27:32.847Z,7.32
2022-08-28T09:30:09.593Z,4.47
2022-08-28T09:32:47.862Z,2.15
2022-08-28T09:35:26.068Z,2.58
2022-08-28T09:37:55.432Z,2.20
2022-08-28T09:40:26.190Z,2.10
2022-08-28T09:43:34.846Z,3.03
2022-08-28T09:46:26.655Z,2.35
2022-08-28T09:49:10.948Z,8.63
2022-08-28T09:51:41.033Z,4.03
2022-08-28T09:54:45.786Z,4.07
2022-08-28T09:57:14.944Z,3.65
2022-08-28T09:59:44.057Z,11.27
2022-08-28T10:02:55.814Z,3.15
2022-08-28T10:05:43.807Z,3.33
2022-08-28T10:08:43.009Z,2.65
2022-08-28T10:11:33.819Z,4.43
2022-08-28T10:14:40.788Z,2.53
2022-08-28T10:17:30.333Z,3.90
2022-08-28T10:20:12.163Z,2.63
2022-08-28T10:22:55.010Z,2.80
2022-08-28T10:25:36.859Z,2.80
2022-08-28T10:28:42.215Z,2.28
2022-08-28T10:31:24.771Z,5.22
2022-08-28T10:34:25.835Z,6.90
2022-08-28T10:37:18.664Z,2.70
2022-08-28T10:39:56.911Z,5.32
2022-08-28T10:42:40.001Z,3.47
2022-08-28T10:45:18.163Z,11.88
2022-08-28T10:47:53.717Z,13.90
2022-08-28T10:50:38.437Z,11.05
2022-08-28T10:53:23.407Z,11.77
2022-08-28T10:56:01.164Z,9.07
2022-08-28T10:58:31.824Z,9.77
2022-08-28T11:01:13.330Z,8.77
2022-08-28T11:03:51.053Z,7.15
2022-08-28T11:06:38.700Z,10.15
2022-08-28T11:09:28.925Z,7.65
2022-08-28T11:12:02.390Z,4.63
2022-08-28T11:17:28.755Z,5.07
2022-08-28T11:20:16.418Z,5.80
2022-08-28T11:22:51.901Z,5.68
2022-08-28T11:25:26.343Z,4.53
2022-08-28T11:28:26.781Z,3.60
2022-08-28T11:31:19.168Z,5.25
2022-08-28T11:34:00.573Z,3.05
2022-08-28T11:36:30.935Z,8.20
2022-08-28T11:39:06.279Z,7.78
2022-08-28T11:41:41.223Z,3.90
2022-08-28T11:44:16.274Z,7.18
2022-08-28T11:46:45.626Z,9.13
2022-08-28T11:49:36.070Z,9.10
2022-08-28T11:55:25.886Z,11.43
2022-08-28T11:58:16.326Z,7.43
2022-08-28T12:01:08.478Z,10.25
2022-08-28T12:03:56.948Z,11.35
2022-08-28T12:06:53.818Z,9.93
2022-08-28T12:09:40.627Z,8.48
2022-08-28T12:12:47.448Z,14.23
2022-08-28T12:15:32.227Z,15.02
2022-08-28T12:18:13.676Z,16.10
2022-08-28T12:21:02.715Z,12.32
2022-08-28T12:23:45.225Z,14.30
2022-08-28T12:26:26.177Z,13.75
2022-08-28T12:29:01.384Z,22.92
2022-08-28T12:32:12.824Z,35.30
2022-08-28T12:34:51.493Z,27.83
2022-08-28T12:37:51.300Z,16.83
2022-08-28T12:40:39.367Z,13.75
2022-08-28T12:43:15.564Z,12.68
2022-08-28T12:45:55.282Z,18.08
2022-08-28T12:48:34.398Z,15.13
2022-08-28T12:51:15.224Z,16.35
2022-08-28T12:53:50.421Z,14.20
2022-08-28T12:56:22.945Z,11.57
2022-08-28T12:58:53.142Z,13.23
2022-08-28T13:01:35.550Z,13.32
2022-08-28T13:04:19.578Z,11.95
2022-08-28T13:06:48.971Z,8.68
2022-08-28T13:09:21.394Z,9.80
2022-08-28T13:11:52.722Z,11.57
2022-08-28T13:14:44.963Z,8.43
2022-08-28T13:17:16.352Z,9.77
2022-08-28T13:19:45.540Z,8.32
2022-08-28T13:22:50.658Z,26.98
2022-08-28T13:25:26.075Z,23.60
2022-08-28T13:28:04.230Z,17.65
2022-08-28T13:30:35.745Z,25.30
2022-08-28T13:33:19.061Z,13.90
2022-08-28T13:35:49.504Z,15.10
2022-08-28T13:38:21.148Z,12.32
2022-08-28T13:41:03.990Z,11.70
2022-08-28T13:43:46.712Z,9.40
2022-08-28T13:46:15.835Z,17.00
2022-08-28T13:48:44.951Z,18.13
2022-08-28T13:51:20.632Z,9.85
2022-08-28T13:53:50.902Z,8.70
2022-08-28T13:56:21.837Z,11.27
2022-08-28T13:58:57.756Z,8.85
2022-08-28T14:01:48.052Z,13.70
2022-08-28T14:04:17.300Z,10.98
2022-08-28T14:06:46.389Z,12.25
2022-08-28T14:09:17.687Z,11.63
2022-08-28T14:11:48.519Z,7.40
2022-08-28T14:14:17.976Z,18.83
2022-08-28T14:16:47.295Z,17.42
2022-08-28T14:19:16.720Z,9.75
2022-08-28T14:21:46.099Z,19.02
2022-08-28T14:24:15.765Z,11.18
2022-08-28T14:26:46.642Z,10.00
2022-08-28T14:29:18.353Z,13.70
2022-08-28T14:31:48.086Z,12.40
2022-08-28T14:34:23.669Z,11.93
2022-08-28T14:36:56.439Z,13.15
2022-08-28T14:39:28.116Z,12.15
2022-08-28T14:41:57.693Z,11.00
2022-08-28T14:44:27.437Z,17.17
2022-08-28T14:46:57.399Z,19.38
2022-08-28T14:49:27.782Z,17.90
2022-08-28T14:51:58.623Z,11.90
2022-08-28T14:54:28.451Z,14.63
2022-08-28T14:56:58.354Z,15.95
2022-08-28T14:59:29.853Z,8.38
2022-08-28T15:02:01.238Z,8.70
2022-08-28T15:04:38.819Z,11.60
2022-08-28T15:07:11.999Z,9.98
2022-08-28T15:09:43.960Z,9.73
2022-08-28T15:12:13.371Z,10.60
2022-08-28T15:14:47.076Z,13.32
2022-08-28T15:17:33.798Z,11.15
2022-08-28T15:20:04.101Z,12.70
2022-08-28T15:22:33.338Z,14.73
2022-08-28T15:25:02.451Z,10.75
2022-08-28T15:27:31.448Z,13.27
2022-08-28T15:30:00.493Z,13.32
2022-08-28T15:32:29.571Z,19.40
2022-08-28T15:34:58.586Z,14.30
2022-08-28T15:37:27.746Z,14.63
2022-08-28T15:40:19.069Z,13.37
2022-08-28T15:42:48.142Z,10.10
2022-08-28T15:45:17.778Z,17.50
2022-08-28T15:47:46.809Z,9.02
2022-08-28T15:50:20.022Z,12.90
2022-08-28T15:52:49.622Z,17.25
2022-08-28T15:55:22.405Z,16.98
2022-08-28T15:57:51.490Z,15.77
2022-08-28T16:00:20.915Z,11.27
2022-08-28T16:02:50.000Z,14.82
2022-08-28T16:05:19.419Z,15.27
2022-08-28T16:07:48.471Z,11.18
2022-08-28T16:10:18.753Z,12.85
2022-08-28T16:12:48.027Z,18.00
2022-08-28T16:15:24.922Z,16.23
2022-08-28T16:17:53.962Z,10.73
2022-08-28T16:20:22.967Z,11.88
2022-08-28T16:22:52.873Z,15.98
2022-08-28T16:25:21.962Z,15.43
2022-08-28T16:27:51.019Z,15.57
2022-08-28T16:30:21.596Z,12.73
2022-08-28T16:32:54.176Z,14.45
2022-08-28T16:35:23.442Z,17.27
2022-08-28T16:37:53.054Z,18.48
2022-08-28T16:40:22.300Z,20.30
2022-08-28T16:42:52.240Z,10.43
2022-08-28T16:45:21.667Z,19.73
2022-08-28T16:47:51.072Z,10.75
2022-08-28T16:50:21.098Z,23.45
2022-08-28T16:52:50.668Z,15.85
2022-08-28T16:55:19.906Z,13.57
2022-08-28T16:57:49.002Z,9.68
2022-08-28T17:00:18.204Z,18.58
2022-08-28T17:02:48.143Z,12.20
2022-08-28T17:05:20.683Z,14.13
2022-08-28T17:07:50.339Z,10.38
2022-08-28T17:10:22.238Z,14.25
2022-08-28T17:12:51.317Z,15.93
2022-08-28T17:15:21.165Z,17.48
2022-08-28T17:17:50.636Z,10.80
2022-08-28T17:20:38.577Z,15.63
2022-08-28T17:23:08.211Z,15.98
2022-08-28T17:25:37.710Z,16.60
2022-08-28T17:28:07.435Z,14.00
2022-08-28T17:30:37.006Z,14.73
2022-08-28T17:33:08.221Z,9.13
2022-08-28T17:35:41.799Z,17.17
2022-08-28T17:38:11.597Z,9.48
2022-08-28T17:40:41.143Z,11.38
2022-08-28T17:43:10.731Z,11.60
2022-08-28T17:45:40.263Z,7.93
2022-08-28T17:48:09.722Z,13.10
2022-08-28T17:50:39.487Z,11.88
2022-08-28T17:53:08.863Z,10.00
2022-08-28T17:55:38.297Z,17.77
2022-08-28T17:58:07.856Z,8.75
2022-08-28T18:00:37.167Z,11.15
2022-08-28T18:03:06.570Z,11.60
2022-08-28T18:05:39.927Z,10.95
2022-08-28T18:08:11.405Z,14.90
2022-08-28T18:10:40.760Z,18.77
2022-08-28T18:13:10.110Z,16.27
2022-08-28T18:15:39.207Z,22.02
2022-08-28T18:18:16.111Z,20.42
2022-08-28T18:20:45.327Z,16.88
2022-08-28T18:23:14.854Z,11.43
2022-08-28T18:25:50.512Z,15.27
2022-08-28T18:28:24.571Z,15.23
2022-08-28T18:30:55.228Z,18.25
2022-08-28T18:33:26.007Z,15.82
2022-08-28T18:35:55.707Z,17.90
2022-08-28T18:38:29.183Z,13.73
2022-08-28T18:40:59.874Z,17.48
2022-08-28T18:43:35.083Z,14.23
2022-08-28T18:46:05.723Z,13.10
2022-08-28T18:48:35.076Z,16.00
2022-08-28T18:51:06.527Z,17.70
2022-08-28T18:53:36.132Z,13.93
2022-08-28T18:56:06.614Z,13.82
2022-08-28T18:58:36.813Z,14.15
2022-08-28T19:01:06.165Z,11.77
2022-08-28T19:03:35.458Z,14.10
2022-08-28T19:06:04.757Z,16.67
2022-08-28T19:08:33.996Z,16.02
2022-08-28T19:11:09.860Z,15.90
2022-08-28T19:13:39.658Z,15.15
2022-08-28T19:16:09.989Z,13.70
2022-08-28T19:18:39.314Z,19.48
2022-08-28T19:21:20.820Z,12.10
2022-08-28T19:23:56.031Z,14.93
2022-08-28T19:26:27.266Z,16.83
2022-08-28T19:28:57.017Z,13.48
2022-08-28T19:31:28.232Z,12.52
2022-08-28T19:33:57.837Z,22.55
2022-08-28T19:36:28.530Z,15.38
2022-08-28T19:38:58.949Z,15.77
2022-08-28T19:41:29.009Z,12.55
2022-08-28T19:43:58.310Z,15.85
2022-08-28T19:46:27.680Z,10.07
2022-08-28T19:48:57.787Z,11.88
2022-08-28T19:51:27.141Z,15.63
2022-08-28T19:53:58.607Z,18.20
2022-08-28T19:56:33.417Z,12.60
2022-08-28T19:59:05.737Z,11.70
2022-08-28T20:01:38.828Z,14.75
2022-08-28T20:04:09.938Z,15.43
2022-08-28T20:06:39.336Z,11.07
2022-08-28T20:09:12.708Z,10.35
2022-08-28T20:11:45.306Z,9.38
2022-08-28T20:14:15.777Z,8.32
2022-08-28T20:16:46.527Z,7.55
2022-08-28T20:19:16.370Z,11.90
2022-08-28T20:21:46.847Z,7.80
2022-08-28T20:24:21.407Z,13.60
2022-08-28T20:26:52.124Z,8.65
2022-08-28T20:29:21.767Z,8.13
2022-08-28T20:31:51.152Z,7.60
2022-08-28T20:34:21.475Z,10.32
2022-08-28T20:36:51.429Z,8.27
2022-08-28T20:39:21.938Z,7.05
2022-08-28T20:41:52.028Z,8.23
2022-08-28T20:44:22.128Z,7.50
2022-08-28T20:46:53.745Z,10.30
2022-08-28T20:49:24.872Z,11.32
2022-08-28T20:51:54.295Z,15.07
2022-08-28T20:54:32.111Z,19.60
2022-08-28T20:57:04.752Z,8.32
2022-08-28T21:02:22.200Z,12.23
2022-08-28T21:04:51.975Z,8.07
2022-08-28T21:07:23.101Z,9.07
2022-08-28T21:10:06.814Z,10.35
2022-08-28T21:12:38.934Z,11.77
2022-08-28T21:15:11.147Z,17.48
2022-08-28T21:17:40.825Z,11.35
2022-08-28T21:20:14.365Z,12.43
2022-08-28T21:22:44.009Z,16.75
2022-08-28T21:25:13.699Z,12.30
2022-08-28T21:27:44.513Z,14.88
2022-08-28T21:30:15.942Z,15.68
2022-08-28T21:32:45.562Z,14.35
2022-08-28T21:35:15.330Z,13.35
2022-08-28T21:37:44.874Z,20.73
2022-08-28T21:40:16.228Z,16.70
2022-08-28T21:42:45.743Z,15.88
2022-08-28T21:45:14.918Z,16.02
2022-08-28T21:47:44.458Z,16.90
2022-08-28T21:50:14.037Z,16.45
2022-08-28T21:52:43.127Z,15.27
2022-08-28T21:55:16.213Z,13.45
2022-08-28T21:57:45.791Z,12.93
2022-08-28T22:00:19.549Z,17.08
2022-08-28T22:02:49.066Z,14.50
2022-08-28T22:05:18.321Z,15.05
2022-08-28T22:07:47.421Z,15.77
2022-08-28T22:10:16.489Z,14.55
2022-08-28T22:12:45.718Z,20.20
2022-08-28T22:15:14.788Z,15.60
2022-08-28T22:17:43.791Z,16.15
2022-08-28T22:20:13.026Z,13.13
2022-08-28T22:23:00.125Z,15.18
2022-08-28T22:25:29.203Z,12.60
2022-08-28T22:27:58.256Z,14.75
2022-08-28T22:30:27.468Z,17.48
2022-08-28T22:32:56.571Z,14.95
2022-08-28T22:35:26.066Z,19.65
2022-08-28T22:37:55.470Z,13.70
2022-08-28T22:40:25.418Z,14.73
2022-08-28T22:42:54.824Z,15.15
2022-08-28T22:45:23.946Z,20.70
2022-08-28T22:47:55.067Z,18.77
2022-08-28T22:50:24.123Z,16.55
2022-08-28T22:52:53.290Z,15.52
2022-08-28T22:55:23.579Z,15.27
2022-08-28T22:57:52.922Z,14.93
2022-08-28T23:00:26.796Z,20.70
2022-08-28T23:05:28.057Z,14.27
2022-08-28T23:07:57.743Z,14.15
2022-08-28T23:10:48.252Z,12.80
2022-08-28T23:13:16.320Z,11.10
2022-08-28T23:15:45.784Z,10.55
2022-08-28T23:18:15.536Z,14.55
2022-08-28T23:20:45.874Z,14.18
2022-08-28T23:23:15.946Z,13.90
2022-08-28T23:25:45.326Z,13.70
2022-08-28T23:28:15.736Z,14.05
2022-08-28T23:30:48.619Z,14.73
2022-08-28T23:33:24.141Z,14.23
2022-08-28T23:35:54.570Z,15.43
2022-08-28T23:38:23.999Z,10.77
2022-08-28T23:40:55.703Z,20.67
2022-08-28T23:43:26.220Z,18.52
2022-08-28T23:45:58.654Z,16.45
2022-08-28T23:48:28.657Z,17.92
2022-08-28T23:50:58.177Z,23.92
2022-08-28T23:53:28.486Z,21.75
2022-08-28T23:55:59.625Z,25.70
2022-08-28T23:58:31.788Z,25.42
